createdAt,value
2022-08-08T00:00:55.849Z,76.90
2022-08-08T00:02:30.893Z,77.10
2022-08-08T00:05:09.721Z,77.10
2022-08-08T00:08:00.796Z,77.00
2022-08-08T00:10:36.784Z,77.10
2022-08-08T00:14:16.714Z,77.10
2022-08-08T00:16:26.237Z,77.10
2022-08-08T00:19:00.913Z,77.30
2022-08-08T00:21:39.808Z,77.40
2022-08-08T00:24:18.153Z,77.50
2022-08-08T00:26:53.667Z,77.90
2022-08-08T00:29:44.435Z,78.20
2022-08-08T00:32:34.362Z,78.50
2022-08-08T00:35:34.193Z,78.80
2022-08-08T00:38:32.415Z,79.20
2022-08-08T00:42:09.154Z,79.40
2022-08-08T00:45:04.760Z,79.40
2022-08-08T00:48:30.092Z,79.60
2022-08-08T00:51:38.803Z,79.80
2022-08-08T00:54:41.596Z,79.70
2022-08-08T00:57:48.502Z,79.90
2022-08-08T01:00:53.705Z,80.00
2022-08-08T01:04:01.558Z,80.10
2022-08-08T01:07:23.854Z,80.20
2022-08-08T01:10:52.718Z,80.20
2022-08-08T01:14:16.375Z,80.50
2022-08-08T01:17:48.228Z,80.70
2022-08-08T01:20:44.546Z,80.90
2022-08-08T01:24:05.581Z,81.20
2022-08-08T01:27:33.264Z,81.30
2022-08-08T01:31:00.622Z,81.40
2022-08-08T01:34:13.956Z,81.30
2022-08-08T01:37:57.486Z,81.50
2022-08-08T01:40:25.030Z,81.70
2022-08-08T01:43:07.218Z,81.90
2022-08-08T01:45:56.110Z,82.00
2022-08-08T01:48:48.127Z,82.20
2022-08-08T01:52:41.057Z,82.40
2022-08-08T01:55:26.481Z,82.50
2022-08-08T01:58:04.463Z,82.70
2022-08-08T02:00:48.408Z,82.80
2022-08-08T02:03:55.433Z,82.90
2022-08-08T02:06:44.421Z,83.00
2022-08-08T02:10:01.786Z,83.10
2022-08-08T02:12:24.821Z,83.20
2022-08-08T02:15:04.359Z,83.20
2022-08-08T02:17:53.410Z,83.10
2022-08-08T02:21:13.267Z,83.20
2022-08-08T02:23:49.333Z,83.20
2022-08-08T02:26:30.256Z,83.20
2022-08-08T02:29:14.842Z,83.30
2022-08-08T02:32:08.579Z,83.30
2022-08-08T02:35:08.470Z,83.40
2022-08-08T02:38:33.633Z,83.40
2022-08-08T02:42:04.316Z,83.40
2022-08-08T02:45:09.754Z,83.60
2022-08-08T02:48:37.257Z,83.70
2022-08-08T02:51:56.878Z,84.00
2022-08-08T02:54:55.165Z,84.10
2022-08-08T02:58:15.082Z,84.10
2022-08-08T03:01:39.733Z,84.30
2022-08-08T03:05:05.089Z,84.60
2022-08-08T03:08:30.933Z,84.90
2022-08-08T03:12:03.130Z,85.10
2022-08-08T03:15:56.482Z,85.20
2022-08-08T03:18:06.996Z,85.40
2022-08-08T03:20:51.968Z,85.50
2022-08-08T03:23:56.510Z,85.70
2022-08-08T03:26:42.425Z,85.70
2022-08-08T03:29:51.370Z,85.70
2022-08-08T03:32:47.525Z,85.80
2022-08-08T03:35:30.123Z,86.00
2022-08-08T03:38:56.111Z,86.10
2022-08-08T03:40:57.362Z,86.20
2022-08-08T03:43:38.472Z,86.40
2022-08-08T03:46:09.687Z,86.40
2022-08-08T03:49:30.265Z,86.60
2022-08-08T03:51:50.697Z,86.80
2022-08-08T03:54:41.514Z,87.00
2022-08-08T03:58:30.415Z,87.20
2022-08-08T04:00:11.809Z,87.20
2022-08-08T04:02:59.598Z,87.20
2022-08-08T04:05:31.825Z,87.90
2022-08-08T04:08:32.625Z,87.00
2022-08-08T04:11:10.987Z,86.90
2022-08-08T04:14:03.732Z,86.90
2022-08-08T04:16:41.395Z,87.10
2022-08-08T04:19:24.038Z,87.20
2022-08-08T04:22:01.502Z,87.40
2022-08-08T04:24:37.522Z,87.50
2022-08-08T04:27:42.767Z,87.50
2022-08-08T04:30:18.329Z,87.80
2022-08-08T04:32:52.137Z,87.90
2022-08-08T04:35:32.333Z,88.10
2022-08-08T04:38:10.069Z,88.30
2022-08-08T04:40:58.092Z,88.20
2022-08-08T04:43:32.289Z,88.20
2022-08-08T04:46:19.598Z,88.20
2022-08-08T04:48:50.864Z,88.00
2022-08-08T04:51:27.918Z,88.00
2022-08-08T04:54:38.953Z,87.90
2022-08-08T04:56:47.037Z,87.80
2022-08-08T04:59:16.935Z,87.60
2022-08-08T05:01:48.091Z,87.60
2022-08-08T05:04:19.489Z,87.40
2022-08-08T05:06:50.610Z,87.30
2022-08-08T05:09:22.718Z,87.20
2022-08-08T05:11:56.810Z,87.10
2022-08-08T05:14:29.508Z,86.90
2022-08-08T05:17:08.852Z,86.70
2022-08-08T05:20:09.391Z,86.60
2022-08-08T05:22:38.070Z,86.50
2022-08-08T05:25:08.816Z,86.50
2022-08-08T05:27:41.529Z,86.50
2022-08-08T05:30:15.551Z,86.40
2022-08-08T05:32:49.290Z,86.30
2022-08-08T05:35:24.299Z,86.00
2022-08-08T05:38:01.467Z,85.90
2022-08-08T05:40:51.381Z,85.80
2022-08-08T05:44:02.810Z,85.50
2022-08-08T05:46:17.973Z,85.20
2022-08-08T05:48:52.704Z,84.80
2022-08-08T05:51:28.214Z,84.50
2022-08-08T05:54:27.712Z,83.90
2022-08-08T05:58:05.387Z,83.60
2022-08-08T06:00:22.823Z,83.10
2022-08-08T06:03:17.182Z,82.70
2022-08-08T06:06:01.306Z,82.40
2022-08-08T06:08:38.314Z,81.70
2022-08-08T06:11:13.240Z,81.00
2022-08-08T06:13:49.428Z,80.70
2022-08-08T06:16:27.557Z,80.30
2022-08-08T06:19:16.317Z,79.90
2022-08-08T06:21:56.993Z,79.40
2022-08-08T06:24:47.391Z,79.20
2022-08-08T06:27:25.209Z,78.80
2022-08-08T06:30:02.859Z,78.40
2022-08-08T06:32:47.528Z,77.80
2022-08-08T06:36:08.855Z,77.20
2022-08-08T06:38:14.636Z,76.60
2022-08-08T06:40:54.224Z,76.20
2022-08-08T06:43:34.059Z,75.50
2022-08-08T06:46:19.025Z,75.10
2022-08-08T06:48:54.304Z,73.70
2022-08-08T06:51:25.214Z,72.90
2022-08-08T06:54:03.320Z,72.20
2022-08-08T06:56:57.364Z,71.60
2022-08-08T06:59:30.531Z,71.10
2022-08-08T07:02:29.197Z,71.10
2022-08-08T07:05:05.934Z,70.80
2022-08-08T07:08:05.904Z,70.70
2022-08-08T07:10:48.010Z,70.50
2022-08-08T07:13:25.160Z,70.30
2022-08-08T07:16:10.647Z,69.40
2022-08-08T07:18:57.711Z,68.80
2022-08-08T07:21:34.893Z,68.40
2022-08-08T07:24:29.429Z,67.20
2022-08-08T07:27:09.290Z,66.20
2022-08-08T07:30:00.411Z,64.80
2022-08-08T07:32:33.837Z,64.70
2022-08-08T07:35:06.459Z,64.70
2022-08-08T07:37:49.695Z,63.70
2022-08-08T07:40:40.394Z,63.20
2022-08-08T07:43:16.993Z,63.20
2022-08-08T07:46:23.215Z,62.90
2022-08-08T07:48:56.349Z,62.30
2022-08-08T07:51:44.796Z,62.10
2022-08-08T07:54:27.537Z,61.50
2022-08-08T07:57:12.739Z,61.00
2022-08-08T07:59:58.648Z,60.60
2022-08-08T08:02:54.385Z,60.60
2022-08-08T08:05:32.991Z,60.50
2022-08-08T08:08:08.284Z,60.00
2022-08-08T08:10:39.539Z,60.00
2022-08-08T08:13:25.189Z,59.90
2022-08-08T08:16:03.685Z,59.80
2022-08-08T08:18:51.854Z,59.60
2022-08-08T08:21:35.414Z,59.90
2022-08-08T08:24:31.982Z,59.80
2022-08-08T08:27:03.861Z,59.50
2022-08-08T08:29:52.052Z,59.30
2022-08-08T08:32:35.605Z,59.40
2022-08-08T08:35:10.199Z,59.40
2022-08-08T08:38:12.869Z,59.20
2022-08-08T08:40:34.819Z,59.10
2022-08-08T08:43:07.893Z,58.90
2022-08-08T08:46:05.647Z,58.60
2022-08-08T08:48:38.029Z,58.40
2022-08-08T08:51:19.399Z,58.30
2022-08-08T08:53:56.657Z,58.40
2022-08-08T08:56:34.813Z,57.50
2022-08-08T08:59:15.065Z,56.50
2022-08-08T09:01:56.905Z,56.10
2022-08-08T09:04:37.998Z,56.30
2022-08-08T09:07:39.110Z,56.00
2022-08-08T09:10:19.406Z,55.20
2022-08-08T09:12:52.313Z,55.10
2022-08-08T09:15:37.073Z,55.00
2022-08-08T09:18:10.168Z,54.70
2022-08-08T09:21:56.515Z,54.10
2022-08-08T09:23:38.186Z,53.70
2022-08-08T09:26:21.464Z,53.80
2022-08-08T09:28:53.841Z,53.40
2022-08-08T09:31:42.775Z,53.30
2022-08-08T09:34:50.592Z,53.20
2022-08-08T09:37:58.549Z,53.10
2022-08-08T09:40:40.700Z,52.30
2022-08-08T09:43:24.035Z,52.60
2022-08-08T09:46:16.717Z,52.50
2022-08-08T09:48:56.430Z,52.40
2022-08-08T09:51:41.472Z,52.20
2022-08-08T09:54:37.201Z,52.00
2022-08-08T09:57:12.649Z,52.20
2022-08-08T10:00:01.155Z,52.00
2022-08-08T10:02:44.942Z,51.80
2022-08-08T10:05:25.215Z,51.50
2022-08-08T10:08:00.789Z,51.10
2022-08-08T10:10:33.179Z,51.00
2022-08-08T10:13:13.817Z,50.70
2022-08-08T10:16:00.299Z,50.90
2022-08-08T10:18:31.916Z,50.40
2022-08-08T10:21:22.585Z,50.00
2022-08-08T10:23:57.764Z,50.10
2022-08-08T10:26:52.239Z,50.40
2022-08-08T10:29:43.834Z,50.70
2022-08-08T10:32:36.161Z,50.20
2022-08-08T10:35:11.519Z,50.20
2022-08-08T10:37:52.264Z,50.10
2022-08-08T10:40:25.119Z,49.40
2022-08-08T10:43:02.971Z,49.30
2022-08-08T10:45:43.019Z,49.40
2022-08-08T10:48:37.155Z,48.90
2022-08-08T10:51:14.123Z,48.50
2022-08-08T10:53:58.300Z,48.30
2022-08-08T10:56:34.585Z,47.90
2022-08-08T10:59:09.547Z,47.50
2022-08-08T11:01:40.414Z,47.10
2022-08-08T11:04:11.989Z,47.10
2022-08-08T11:06:47.395Z,46.70
2022-08-08T11:09:21.249Z,47.00
2022-08-08T11:12:05.798Z,46.20
2022-08-08T11:14:57.239Z,45.70
2022-08-08T11:18:00.586Z,45.30
2022-08-08T11:20:23.707Z,44.50
2022-08-08T11:23:15.971Z,43.70
2022-08-08T11:25:56.914Z,43.20
2022-08-08T11:28:30.504Z,42.50
2022-08-08T11:31:04.133Z,42.30
2022-08-08T11:33:52.703Z,42.50
2022-08-08T11:36:27.876Z,42.20
2022-08-08T11:38:59.366Z,42.00
2022-08-08T11:41:32.472Z,41.80
2022-08-08T11:44:29.024Z,41.60
2022-08-08T11:47:00.381Z,41.90
2022-08-08T11:49:30.356Z,41.70
2022-08-08T11:51:59.836Z,41.40
2022-08-08T11:54:34.316Z,41.60
2022-08-08T11:57:16.976Z,41.80
2022-08-08T12:00:09.794Z,41.60
2022-08-08T12:02:54.842Z,41.50
2022-08-08T12:05:34.076Z,41.40
2022-08-08T12:08:04.379Z,41.40
2022-08-08T12:10:54.022Z,41.50
2022-08-08T12:13:37.954Z,41.50
2022-08-08T12:16:16.502Z,41.40
2022-08-08T12:18:48.850Z,41.40
2022-08-08T12:22:00.471Z,41.30
2022-08-08T12:24:17.317Z,41.30
2022-08-08T12:26:50.036Z,41.40
2022-08-08T12:29:40.864Z,41.50
2022-08-08T12:32:20.269Z,41.20
2022-08-08T12:35:04.937Z,40.80
2022-08-08T12:37:48.126Z,41.30
2022-08-08T12:40:44.517Z,41.40
2022-08-08T12:43:32.955Z,41.40
2022-08-08T12:46:19.190Z,41.10
2022-08-08T12:49:22.119Z,40.30
2022-08-08T12:51:59.177Z,40.70
2022-08-08T12:54:48.675Z,40.80
2022-08-08T12:57:27.154Z,41.00
2022-08-08T13:00:05.776Z,41.00
2022-08-08T13:02:51.649Z,41.80
2022-08-08T13:05:26.868Z,42.30
2022-08-08T13:08:19.087Z,42.20
2022-08-08T13:10:57.008Z,41.20
2022-08-08T13:13:35.221Z,40.50
2022-08-08T13:16:20.508Z,40.60
2022-08-08T13:18:57.580Z,40.30
2022-08-08T13:21:49.112Z,40.00
2022-08-08T13:24:38.535Z,39.90
2022-08-08T13:27:12.308Z,39.10
2022-08-08T13:29:52.844Z,39.20
2022-08-08T13:32:23.570Z,39.50
2022-08-08T13:34:55.504Z,39.80
2022-08-08T13:37:51.782Z,40.10
2022-08-08T13:40:27.518Z,40.50
2022-08-08T13:42:57.891Z,40.70
2022-08-08T13:45:27.569Z,40.90
2022-08-08T13:48:25.299Z,41.30
2022-08-08T13:51:24.580Z,42.00
2022-08-08T13:54:00.359Z,42.20
2022-08-08T13:56:41.579Z,42.20
2022-08-08T13:59:32.931Z,42.60
2022-08-08T14:02:07.830Z,42.60
2022-08-08T14:04:52.935Z,43.10
2022-08-08T14:07:24.029Z,43.70
2022-08-08T14:10:05.346Z,43.70
2022-08-08T14:12:43.793Z,43.90
2022-08-08T14:15:39.774Z,43.60
2022-08-08T14:18:35.018Z,43.70
2022-08-08T14:21:12.808Z,44.20
2022-08-08T14:24:04.199Z,44.70
2022-08-08T14:26:45.898Z,44.90
2022-08-08T14:29:28.946Z,45.50
2022-08-08T14:32:12.581Z,45.10
2022-08-08T14:34:45.338Z,45.40
2022-08-08T14:37:18.904Z,45.60
2022-08-08T14:40:07.279Z,45.50
2022-08-08T14:42:55.007Z,45.50
2022-08-08T14:46:01.375Z,45.70
2022-08-08T14:48:34.421Z,45.90
2022-08-08T14:51:08.434Z,45.90
2022-08-08T14:53:55.902Z,46.00
2022-08-08T14:56:26.146Z,46.40
2022-08-08T14:58:56.254Z,46.70
2022-08-08T15:01:37.331Z,46.80
2022-08-08T15:04:13.170Z,46.80
2022-08-08T15:06:44.351Z,46.80
2022-08-08T15:09:14.381Z,47.00
2022-08-08T15:11:46.355Z,47.30
2022-08-08T15:14:25.063Z,47.40
2022-08-08T15:16:57.343Z,47.40
2022-08-08T15:19:45.003Z,47.50
2022-08-08T15:22:17.985Z,47.90
2022-08-08T15:24:52.894Z,48.00
2022-08-08T15:28:04.844Z,48.90
2022-08-08T15:30:12.562Z,48.40
2022-08-08T15:32:45.247Z,48.70
2022-08-08T15:35:37.529Z,48.90
2022-08-08T15:38:12.856Z,49.30
2022-08-08T15:40:45.335Z,49.60
2022-08-08T15:43:34.864Z,49.80
2022-08-08T15:46:05.150Z,50.00
2022-08-08T15:48:36.412Z,50.10
2022-08-08T15:51:07.268Z,50.10
2022-08-08T15:53:49.014Z,50.20
2022-08-08T15:56:20.024Z,50.40
2022-08-08T15:58:50.387Z,50.70
2022-08-08T16:01:20.931Z,50.80
2022-08-08T16:03:53.028Z,50.90
2022-08-08T16:06:27.768Z,51.00
2022-08-08T16:09:02.386Z,51.00
2022-08-08T16:13:14.107Z,51.10
2022-08-08T16:14:56.122Z,51.10
2022-08-08T16:17:58.198Z,51.10
2022-08-08T16:20:17.757Z,51.20
2022-08-08T16:22:50.128Z,51.60
2022-08-08T16:25:21.969Z,51.70
2022-08-08T16:27:58.249Z,51.90
2022-08-08T16:30:36.527Z,52.10
2022-08-08T16:33:06.076Z,52.20
2022-08-08T16:35:58.344Z,53.10
2022-08-08T16:38:31.721Z,52.40
2022-08-08T16:41:01.929Z,52.60
2022-08-08T16:43:30.999Z,52.50
2022-08-08T16:46:43.197Z,52.70
2022-08-08T16:49:07.796Z,52.80
2022-08-08T16:55:07.677Z,52.80
2022-08-08T16:55:19.493Z,52.80
2022-08-08T16:57:27.849Z,52.60
2022-08-08T17:00:10.162Z,52.60
2022-08-08T17:02:40.143Z,52.70
2022-08-08T17:05:13.968Z,52.90
2022-08-08T17:07:51.080Z,53.10
2022-08-08T17:10:20.657Z,53.50
2022-08-08T17:12:53.005Z,53.60
2022-08-08T17:15:23.144Z,53.60
2022-08-08T17:18:02.970Z,53.70
2022-08-08T17:20:39.792Z,54.00
2022-08-08T17:23:17.959Z,54.20
2022-08-08T17:26:05.153Z,54.30
2022-08-08T17:28:35.683Z,54.40
2022-08-08T17:31:43.641Z,54.50
2022-08-08T17:34:49.204Z,54.60
2022-08-08T17:36:55.185Z,54.70
2022-08-08T17:40:04.335Z,54.90
2022-08-08T17:42:23.033Z,55.10
2022-08-08T17:44:52.841Z,55.30
2022-08-08T17:47:23.736Z,55.50
2022-08-08T17:50:08.407Z,55.70
2022-08-08T17:52:43.156Z,55.90
2022-08-08T17:56:03.891Z,56.10
2022-08-08T17:58:02.938Z,56.20
2022-08-08T18:00:32.173Z,56.30
2022-08-08T18:03:08.478Z,56.30
2022-08-08T18:05:49.516Z,56.40
2022-08-08T18:08:38.373Z,56.60
2022-08-08T18:11:16.345Z,56.80
2022-08-08T18:14:04.436Z,56.90
2022-08-08T18:16:52.823Z,57.00
2022-08-08T18:19:24.175Z,57.10
2022-08-08T18:22:01.870Z,57.20
2022-08-08T18:24:32.164Z,57.40
2022-08-08T18:27:06.009Z,57.50
2022-08-08T18:30:02.520Z,57.60
2022-08-08T18:32:31.496Z,57.70
2022-08-08T18:35:00.354Z,57.80
2022-08-08T18:37:34.164Z,58.00
2022-08-08T18:40:03.927Z,58.10
2022-08-08T18:42:36.468Z,58.30
2022-08-08T18:45:09.227Z,58.40
2022-08-08T18:47:57.379Z,58.60
2022-08-08T18:50:26.949Z,58.80
2022-08-08T18:52:55.905Z,59.00
2022-08-08T18:55:28.002Z,59.20
2022-08-08T18:57:58.590Z,59.30
2022-08-08T19:00:28.329Z,59.60
2022-08-08T19:03:04.154Z,59.70
2022-08-08T19:05:38.542Z,59.90
2022-08-08T19:08:24.510Z,60.10
2022-08-08T19:10:58.364Z,60.30
2022-08-08T19:13:53.529Z,60.50
2022-08-08T19:16:19.938Z,60.60
2022-08-08T19:19:00.265Z,60.80
2022-08-08T19:21:33.328Z,61.10
2022-08-08T19:24:05.573Z,61.20
2022-08-08T19:26:37.383Z,61.40
2022-08-08T19:29:08.739Z,61.60
2022-08-08T19:31:37.771Z,61.70
2022-08-08T19:34:36.274Z,61.80
2022-08-08T19:36:59.211Z,61.90
2022-08-08T19:39:34.945Z,61.90
2022-08-08T19:42:06.819Z,62.00
2022-08-08T19:44:45.951Z,62.10
2022-08-08T19:47:24.720Z,62.10
2022-08-08T19:50:03.171Z,62.30
2022-08-08T19:52:37.077Z,62.40
2022-08-08T19:55:11.256Z,62.60
2022-08-08T19:57:59.052Z,62.80
2022-08-08T20:00:32.846Z,63.00
2022-08-08T20:03:02.128Z,63.10
2022-08-08T20:06:14.596Z,63.30
2022-08-08T20:08:33.504Z,63.50
2022-08-08T20:11:03.328Z,63.70
2022-08-08T20:14:32.312Z,63.80
2022-08-08T20:16:29.579Z,64.00
2022-08-08T20:18:58.775Z,64.10
2022-08-08T20:21:32.028Z,64.20
2022-08-08T20:24:07.954Z,64.50
2022-08-08T20:26:38.409Z,64.70
2022-08-08T20:29:11.307Z,64.90
2022-08-08T20:32:07.307Z,64.90
2022-08-08T20:34:32.053Z,65.10
2022-08-08T20:37:03.299Z,65.20
2022-08-08T20:39:51.785Z,65.50
2022-08-08T20:42:28.531Z,65.60
2022-08-08T20:44:59.849Z,65.70
2022-08-08T20:47:36.421Z,65.80
2022-08-08T20:50:26.514Z,66.00
2022-08-08T20:52:58.082Z,65.90
2022-08-08T20:55:27.111Z,65.90
2022-08-08T20:57:58.090Z,65.90
2022-08-08T21:00:27.415Z,65.90
2022-08-08T21:02:57.871Z,65.90
2022-08-08T21:05:31.925Z,65.80
2022-08-08T21:08:37.113Z,65.90
2022-08-08T21:11:08.710Z,65.80
2022-08-08T21:13:39.957Z,65.80
2022-08-08T21:16:18.056Z,65.90
2022-08-08T21:18:57.730Z,66.00
2022-08-08T21:21:39.895Z,66.00
2022-08-08T21:24:22.259Z,66.00
2022-08-08T21:26:58.066Z,66.10
2022-08-08T21:30:05.547Z,66.40
2022-08-08T21:32:25.102Z,66.50
2022-08-08T21:34:56.542Z,66.60
2022-08-08T21:37:54.416Z,66.70
2022-08-08T21:40:31.241Z,66.80
2022-08-08T21:43:00.998Z,66.90
2022-08-08T21:48:01.435Z,66.90
2022-08-08T21:48:30.415Z,67.00
2022-08-08T21:51:13.282Z,67.20
2022-08-08T21:54:32.113Z,67.40
2022-08-08T21:56:42.004Z,67.50
2022-08-08T21:59:12.952Z,67.80
2022-08-08T22:01:44.826Z,67.70
2022-08-08T22:04:21.685Z,67.80
2022-08-08T22:06:51.982Z,67.80
2022-08-08T22:09:26.791Z,67.90
2022-08-08T22:12:09.744Z,68.00
2022-08-08T22:14:44.279Z,67.90
2022-08-08T22:17:17.060Z,68.00
2022-08-08T22:20:13.160Z,68.00
2022-08-08T22:22:55.636Z,68.00
2022-08-08T22:25:26.038Z,68.10
2022-08-08T22:28:02.744Z,68.20
2022-08-08T22:30:33.881Z,68.40
2022-08-08T22:33:02.894Z,68.60
2022-08-08T22:36:05.198Z,68.60
2022-08-08T22:38:28.815Z,68.60
2022-08-08T22:40:58.328Z,68.80
2022-08-08T22:43:29.440Z,69.10
2022-08-08T22:46:01.276Z,69.30
2022-08-08T22:48:30.441Z,69.60
2022-08-08T22:50:59.382Z,69.80
2022-08-08T22:54:30.755Z,70.20
2022-08-08T22:56:28.235Z,70.40
2022-08-08T22:58:58.151Z,70.60
2022-08-08T23:02:02.196Z,70.60
2022-08-08T23:04:16.381Z,70.80
2022-08-08T23:07:02.671Z,70.90
2022-08-08T23:09:39.489Z,71.00
2022-08-08T23:12:39.492Z,70.90
2022-08-08T23:15:10.731Z,70.90
2022-08-08T23:17:59.581Z,71.10
2022-08-08T23:20:28.653Z,71.10
2022-08-08T23:22:57.738Z,71.20
2022-08-08T23:25:28.065Z,71.20
2022-08-08T23:27:56.986Z,71.30
2022-08-08T23:30:47.625Z,71.40
2022-08-08T23:33:20.954Z,71.40
2022-08-08T23:36:09.077Z,71.60
2022-08-08T23:38:44.161Z,71.70
2022-08-08T23:41:23.018Z,71.80
2022-08-08T23:43:56.379Z,71.70
2022-08-08T23:49:00.412Z,71.70
2022-08-08T23:49:18.946Z,71.90
2022-08-08T23:52:04.726Z,72.10
2022-08-08T23:54:41.630Z,72.30
2022-08-08T23:57:53.141Z,72.40
